Time;durP1;ratioP1;P1;durP2;ratioP2;P2;SDS_P1;SDS_P2;PMS_P1;PMS_P2;Temp;Humidity;BMP_temperature;BMP_pressure;BME280_temperature;BME280_humidity;BME280_pressure;Samples;Min_cycle;Max_cycle;Signal;HPM_P1;HPM_P2
2023/09/10 00:00:06;;;;;;;6.93;4.13;;;;;;;19.40;100.00;100934.22;5061100;28;20028;-50
2023/09/10 00:02:31;;;;;;;5.13;3.25;;;;;;;19.31;100.00;100936.47;5052116;28;20035;-49
2023/09/10 00:04:56;;;;;;;2.70;2.33;;;;;;;19.22;100.00;100934.38;5055630;28;20229;-48
2023/09/10 00:07:22;;;;;;;4.55;2.92;;;;;;;19.20;100.00;100937.28;5059713;28;20040;-52
2023/09/10 00:09:47;;;;;;;6.95;3.25;;;;;;;19.12;100.00;100937.66;5065958;28;20039;-49
2023/09/10 00:12:12;;;;;;;8.68;4.57;;;;;;;19.11;100.00;100941.41;5053266;28;20619;-47
2023/09/10 00:14:38;;;;;;;7.15;4.28;;;;;;;19.08;100.00;100945.41;5054010;28;20199;-54
2023/09/10 00:17:03;;;;;;;6.40;3.50;;;;;;;19.03;100.00;100939.09;5049673;28;20509;-54
2023/09/10 00:19:28;;;;;;;5.13;3.50;;;;;;;18.98;100.00;100939.00;5048806;28;20523;-49
2023/09/10 00:21:54;;;;;;;5.53;3.92;;;;;;;18.91;100.00;100939.91;5055180;28;20124;-48
2023/09/10 00:24:19;;;;;;;5.80;2.90;;;;;;;18.83;100.00;100936.78;5058775;28;20504;-53
2023/09/10 00:26:44;;;;;;;7.97;4.25;;;;;;;18.79;100.00;100936.41;5053414;28;20495;-53
2023/09/10 00:29:10;;;;;;;5.55;3.65;;;;;;;18.83;100.00;100940.28;5053277;28;20068;-50
2023/09/10 00:31:35;;;;;;;7.80;3.42;;;;;;;18.89;100.00;100930.44;5052033;28;20060;-50
2023/09/10 00:34:00;;;;;;;9.38;4.20;;;;;;;18.87;100.00;100930.72;5053669;28;20115;-50
2023/09/10 00:36:25;;;;;;;5.68;3.08;;;;;;;18.79;100.00;100924.84;5058150;28;20076;-52
2023/09/10 00:38:51;;;;;;;8.93;4.25;;;;;;;18.60;100.00;100921.44;5058886;28;20029;-50
2023/09/10 00:41:17;;;;;;;7.50;2.88;;;;;;;18.51;100.00;100929.03;5057533;28;20155;-51
2023/09/10 00:43:42;;;;;;;6.15;3.90;;;;;;;18.53;100.00;100933.13;5052038;28;20067;-51
2023/09/10 00:46:07;;;;;;;4.50;4.10;;;;;;;18.60;100.00;100927.63;5044612;28;20028;-55
2023/09/10 00:48:33;;;;;;;6.75;3.22;;;;;;;18.69;100.00;100930.78;5056047;28;20064;-52
2023/09/10 00:50:59;;;;;;;3.58;3.30;;;;;;;18.75;100.00;100929.88;5060008;28;20028;-52
2023/09/10 00:53:25;;;;;;;7.32;4.57;;;;;;;18.67;100.00;100931.03;5048793;28;20366;-54
2023/09/10 00:55:51;;;;;;;5.82;4.35;;;;;;;18.62;100.00;100933.59;5052660;28;20021;-53
2023/09/10 00:58:17;;;;;;;7.03;4.35;;;;;;;18.58;100.00;100921.66;5049228;28;20032;-53
2023/09/10 01:00:44;;;;;;;6.32;3.63;;;;;;;18.48;100.00;100924.13;5048915;28;20035;-51
2023/09/10 01:03:10;;;;;;;10.50;3.67;;;;;;;18.33;100.00;100929.13;5055523;28;20032;-52
2023/09/10 01:05:36;;;;;;;7.20;3.67;;;;;;;18.26;100.00;100926.56;5049305;28;20060;-53
2023/09/10 01:08:04;;;;;;;7.20;3.60;;;;;;;18.24;100.00;100934.81;5055204;28;20475;-54
2023/09/10 01:10:43;;;;;;;4.28;3.88;;;;;;;18.19;100.00;100928.53;5048935;28;20048;-50
2023/09/10 01:13:26;;;;;;;4.90;3.88;;;;;;;18.15;100.00;100932.69;5052153;28;20047;-53
2023/09/10 01:15:59;;;;;;;4.15;3.20;;;;;;;18.05;100.00;100946.69;5042434;28;20486;-50
2023/09/10 01:18:37;;;;;;;12.60;4.28;;;;;;;18.03;100.00;100941.56;5051201;28;20036;-48
2023/09/10 01:21:31;;;;;;;6.78;3.67;;;;;;;18.09;100.00;100932.56;5051158;28;20478;-50
2023/09/10 01:24:12;;;;;;;6.40;4.18;;;;;;;18.11;100.00;100937.72;5059695;28;20413;-54
2023/09/10 01:26:37;;;;;;;9.02;3.70;;;;;;;18.11;100.00;100939.59;5056981;28;20089;-54
2023/09/10 01:29:04;;;;;;;5.18;3.35;;;;;;;18.12;100.00;100942.03;5049658;28;20022;-53
2023/09/10 01:31:32;;;;;;;7.70;3.88;;;;;;;18.19;100.00;100941.94;5046422;28;20040;-54
2023/09/10 01:34:03;;;;;;;6.93;3.97;;;;;;;18.24;100.00;100947.44;5057503;28;20036;-51
2023/09/10 01:36:42;;;;;;;5.32;3.53;;;;;;;18.18;100.00;100943.00;5057661;28;20032;-54
2023/09/10 01:39:36;;;;;;;5.80;4.55;;;;;;;18.15;100.00;100944.28;5052619;28;20032;-54
2023/09/10 01:42:05;;;;;;;4.72;4.25;;;;;;;18.06;100.00;100951.81;5055752;28;20037;-52
2023/09/10 01:44:32;;;;;;;5.20;3.72;;;;;;;18.01;100.00;100954.38;5056389;28;20398;-53
2023/09/10 01:46:58;;;;;;;8.65;4.22;;;;;;;18.04;100.00;100947.72;5055035;28;20036;-53
2023/09/10 01:49:25;;;;;;;5.28;4.18;;;;;;;18.05;100.00;100941.34;5055447;28;20417;-54
2023/09/10 01:51:50;;;;;;;10.73;4.57;;;;;;;18.02;100.00;100949.84;5059938;28;20021;-55
2023/09/10 01:54:16;;;;;;;8.65;4.65;;;;;;;17.98;100.00;100940.59;5058204;28;20036;-54
2023/09/10 01:56:41;;;;;;;6.00;4.28;;;;;;;17.94;100.00;100940.25;5056079;28;20021;-53
2023/09/10 01:59:06;;;;;;;6.82;4.68;;;;;;;17.92;100.00;100936.97;5052377;28;20361;-53
2023/09/10 02:01:32;;;;;;;5.00;3.65;;;;;;;17.94;100.00;100940.25;5059388;28;20024;-50
2023/09/10 02:03:57;;;;;;;13.38;4.93;;;;;;;17.94;100.00;100929.53;5058299;28;20485;-53
2023/09/10 02:06:22;;;;;;;4.93;3.45;;;;;;;17.96;100.00;100930.09;5054845;28;20508;-53
2023/09/10 02:08:48;;;;;;;7.75;4.55;;;;;;;17.99;100.00;100926.97;5053744;28;20044;-49
2023/09/10 02:11:13;;;;;;;10.85;4.38;;;;;;;18.03;100.00;100928.13;5055453;28;20044;-50
2023/09/10 02:13:39;;;;;;;5.25;3.38;;;;;;;18.07;100.00;100923.97;5048501;28;20037;-51
2023/09/10 02:16:04;;;;;;;7.22;5.50;;;;;;;18.13;100.00;100929.44;5052265;28;20083;-51
2023/09/10 02:18:29;;;;;;;4.53;4.10;;;;;;;18.12;100.00;100925.94;5054327;28;20066;-51
2023/09/10 02:20:55;;;;;;;5.03;4.13;;;;;;;18.07;100.00;100915.91;5056066;28;20029;-50
2023/09/10 02:23:21;;;;;;;4.75;4.05;;;;;;;18.03;100.00;100916.59;5057786;28;20033;-53
2023/09/10 02:25:46;;;;;;;10.20;6.53;;;;;;;17.97;100.00;100912.16;5056809;28;20539;-55
2023/09/10 02:28:12;;;;;;;6.82;4.65;;;;;;;18.02;100.00;100921.16;5063491;28;20029;-51
2023/09/10 02:30:37;;;;;;;5.72;3.90;;;;;;;18.08;100.00;100914.03;5055538;28;20116;-52
2023/09/10 02:33:03;;;;;;;7.85;5.70;;;;;;;18.08;100.00;100914.84;5055771;28;20060;-51
2023/09/10 02:35:28;;;;;;;6.07;4.13;;;;;;;18.07;100.00;100918.59;5052228;28;20033;-52
2023/09/10 02:37:54;;;;;;;4.88;3.97;;;;;;;18.12;100.00;100917.06;5058137;28;20781;-48
2023/09/10 02:40:19;;;;;;;8.02;4.72;;;;;;;18.16;100.00;100921.75;5055624;28;20039;-52
2023/09/10 02:42:44;;;;;;;9.18;4.95;;;;;;;18.13;100.00;100929.44;5057321;28;20512;-55
2023/09/10 02:45:11;;;;;;;8.93;4.47;;;;;;;18.07;100.00;100925.78;5054616;28;20641;-54
2023/09/10 02:47:37;;;;;;;8.65;5.15;;;;;;;18.04;100.00;100929.78;5061687;28;20029;-50
2023/09/10 02:50:02;;;;;;;5.70;4.80;;;;;;;18.03;100.00;100928.13;5065125;28;20031;-52
2023/09/10 02:52:30;;;;;;;6.90;5.60;;;;;;;17.96;100.00;100938.13;5061753;28;20114;-54
2023/09/10 02:54:56;;;;;;;8.35;5.57;;;;;;;17.84;100.00;100943.47;5056819;28;20077;-55
2023/09/10 02:57:21;;;;;;;10.15;5.07;;;;;;;17.79;100.00;100937.13;5058938;28;20029;-55
2023/09/10 02:59:47;;;;;;;7.25;4.88;;;;;;;17.78;100.00;100935.47;5055675;28;20040;-54
2023/09/10 03:02:12;;;;;;;7.70;4.78;;;;;;;17.78;100.00;100936.28;5056731;28;20032;-54
2023/09/10 03:04:37;;;;;;;10.27;5.57;;;;;;;17.83;100.00;100932.97;5063505;28;20040;-52
2023/09/10 03:07:03;;;;;;;7.70;4.65;;;;;;;17.85;100.00;100929.00;5056857;28;20114;-54
2023/09/10 03:09:28;;;;;;;8.73;5.05;;;;;;;17.82;100.00;100931.34;5049328;28;20037;-53
2023/09/10 03:12:22;;;;;;;7.85;5.00;;;;;;;17.83;100.00;100928.41;5068295;28;20496;-54
2023/09/10 03:14:48;;;;;;;6.10;4.57;;;;;;;17.72;100.00;100923.81;5059976;28;20062;-53
2023/09/10 03:17:13;;;;;;;9.23;5.00;;;;;;;17.62;100.00;100916.31;5059649;28;20402;-53
2023/09/10 03:19:39;;;;;;;8.52;4.75;;;;;;;17.57;100.00;100916.16;5060394;28;20029;-51
2023/09/10 03:22:04;;;;;;;6.93;4.20;;;;;;;17.55;100.00;100910.19;5065906;28;20137;-51
2023/09/10 03:24:33;;;;;;;9.18;4.32;;;;;;;17.55;100.00;100906.72;5058804;28;20067;-53
2023/09/10 03:26:58;;;;;;;7.70;5.05;;;;;;;17.56;100.00;100906.50;5052234;28;20119;-50
2023/09/10 03:29:24;;;;;;;7.30;4.93;;;;;;;17.47;100.00;100899.00;5050481;28;20116;-53
2023/09/10 03:31:49;;;;;;;6.53;4.57;;;;;;;17.34;100.00;100900.78;5064321;28;20052;-54
2023/09/10 03:34:14;;;;;;;7.18;5.13;;;;;;;17.33;100.00;100901.03;5051502;28;20064;-54
2023/09/10 03:36:40;;;;;;;8.52;4.93;;;;;;;17.35;100.00;100896.25;5063288;28;20042;-49
2023/09/10 03:39:05;;;;;;;7.50;4.15;;;;;;;17.36;100.00;100890.66;5055144;28;20032;-51
2023/09/10 03:41:31;;;;;;;8.20;4.53;;;;;;;17.33;100.00;100888.44;5050674;28;20036;-53
2023/09/10 03:43:57;;;;;;;9.00;5.18;;;;;;;17.32;100.00;100896.69;5059595;28;20151;-53
2023/09/10 03:46:22;;;;;;;7.38;5.68;;;;;;;17.31;100.00;100893.19;5058512;28;20048;-54
2023/09/10 03:48:47;;;;;;;12.20;5.00;;;;;;;17.31;100.00;100895.88;5050619;28;20340;-51
2023/09/10 03:51:13;;;;;;;5.72;4.28;;;;;;;17.29;100.00;100897.97;5058556;28;20120;-53
2023/09/10 03:53:38;;;;;;;11.02;5.00;;;;;;;17.29;100.00;100906.00;5055283;28;20078;-56
2023/09/10 03:56:03;;;;;;;8.80;4.93;;;;;;;17.33;100.00;100895.66;5057103;28;20043;-52
2023/09/10 03:58:29;;;;;;;8.85;4.57;;;;;;;17.29;100.00;100900.63;5063826;28;20175;-52
2023/09/10 04:00:54;;;;;;;6.43;4.95;;;;;;;17.26;100.00;100900.28;5063250;28;20420;-54
2023/09/10 04:03:20;;;;;;;8.02;4.68;;;;;;;17.26;100.00;100894.94;5063628;28;20112;-54
2023/09/10 04:05:45;;;;;;;8.63;4.65;;;;;;;17.30;100.00;100893.44;5051931;28;20440;-51
2023/09/10 04:08:11;;;;;;;7.43;5.05;;;;;;;17.33;100.00;100883.06;5059548;28;20036;-54
2023/09/10 04:10:36;;;;;;;11.95;5.72;;;;;;;17.26;100.00;100882.34;5062901;28;20031;-53
2023/09/10 04:13:01;;;;;;;12.80;5.43;;;;;;;17.26;100.00;100892.25;5055542;28;20041;-54
2023/09/10 04:15:26;;;;;;;8.73;4.82;;;;;;;17.26;100.00;100890.38;5050487;28;20067;-52
2023/09/10 04:17:52;;;;;;;6.70;4.78;;;;;;;17.22;100.00;100884.66;5048668;28;20395;-51
2023/09/10 04:20:19;;;;;;;5.38;4.70;;;;;;;17.22;100.00;100887.34;5061605;28;20547;-51
2023/09/10 04:22:46;;;;;;;13.13;5.25;;;;;;;17.19;100.00;100885.13;5052702;28;20040;-54
2023/09/10 04:25:12;;;;;;;8.77;4.93;;;;;;;17.20;100.00;100884.06;5052531;28;20059;-54
2023/09/10 04:27:37;;;;;;;4.63;4.15;;;;;;;17.20;100.00;100880.56;5047569;28;20884;-54
2023/09/10 04:30:04;;;;;;;6.38;4.63;;;;;;;17.18;100.00;100870.06;5060592;28;20389;-53
2023/09/10 04:32:29;;;;;;;14.02;4.72;;;;;;;17.15;100.00;100872.38;5049437;28;20525;-56
2023/09/10 04:34:55;;;;;;;8.23;5.43;;;;;;;17.12;100.00;100878.19;5050897;28;20066;-52
2023/09/10 04:37:20;;;;;;;10.50;5.40;;;;;;;17.08;100.00;100872.47;5049402;28;20039;-48
2023/09/10 04:39:46;;;;;;;11.52;5.82;;;;;;;17.05;100.00;100875.59;5059211;28;20375;-51
2023/09/10 04:42:11;;;;;;;8.95;6.05;;;;;;;17.06;100.00;100873.72;5053669;28;20099;-49
2023/09/10 04:44:36;;;;;;;9.52;4.65;;;;;;;17.02;100.00;100873.38;5054128;28;20047;-52
2023/09/10 04:47:03;;;;;;;8.13;4.82;;;;;;;17.02;100.00;100876.03;5048762;28;20040;-52
2023/09/10 04:49:29;;;;;;;7.57;4.82;;;;;;;16.93;100.00;100862.13;5058521;28;20444;-55
2023/09/10 04:51:54;;;;;;;12.35;4.80;;;;;;;16.91;100.00;100868.72;5058147;28;20028;-53
2023/09/10 04:54:20;;;;;;;8.57;4.18;;;;;;;16.98;100.00;100882.88;5067585;28;20102;-52
2023/09/10 04:56:47;;;;;;;12.18;5.40;;;;;;;17.02;100.00;100885.94;5067000;28;20509;-52
2023/09/10 04:59:13;;;;;;;4.95;4.45;;;;;;;17.04;100.00;100889.19;5055381;28;20036;-54
2023/09/10 05:01:38;;;;;;;9.93;4.72;;;;;;;17.07;100.00;100883.41;5047740;28;20035;-52
2023/09/10 05:04:04;;;;;;;10.43;5.47;;;;;;;17.08;100.00;100882.34;5048425;28;20032;-53
2023/09/10 05:06:29;;;;;;;9.02;5.20;;;;;;;16.99;100.00;100888.03;5049727;28;20028;-53
2023/09/10 05:08:55;;;;;;;4.55;3.58;;;;;;;16.91;100.00;100888.31;5048095;28;20723;-50
2023/09/10 05:11:20;;;;;;;7.38;5.50;;;;;;;16.94;100.00;100887.06;5055812;28;20237;-51
2023/09/10 05:13:45;;;;;;;11.07;5.00;;;;;;;16.95;100.00;100891.38;5056289;28;20028;-50
2023/09/10 05:16:11;;;;;;;4.93;4.07;;;;;;;16.94;100.00;100892.41;5066913;28;20033;-55
2023/09/10 05:18:36;;;;;;;5.85;5.25;;;;;;;16.95;100.00;100894.84;5059348;28;20387;-53
2023/09/10 05:21:02;;;;;;;7.50;4.88;;;;;;;16.92;100.00;100895.31;5067960;28;20355;-50
2023/09/10 05:23:28;;;;;;;7.65;4.90;;;;;;;16.91;100.00;100899.03;5059652;28;20024;-51
2023/09/10 05:25:54;;;;;;;6.53;4.53;;;;;;;16.96;100.00;100909.06;5056629;28;20528;-52
2023/09/10 05:28:19;;;;;;;8.82;5.22;;;;;;;16.96;100.00;100896.50;5062404;28;20036;-51
2023/09/10 05:30:44;;;;;;;6.15;5.30;;;;;;;16.99;100.00;100903.28;5058570;28;20036;-51
2023/09/10 05:33:10;;;;;;;5.10;4.22;;;;;;;17.02;100.00;100910.88;5056490;28;20045;-56
2023/09/10 05:35:35;;;;;;;8.38;5.38;;;;;;;17.02;100.00;100907.38;5059324;28;20388;-51
2023/09/10 05:38:01;;;;;;;7.82;4.30;;;;;;;16.95;100.00;100908.25;5057661;28;20143;-50
2023/09/10 05:40:26;;;;;;;5.57;4.03;;;;;;;17.03;100.00;100911.69;5058748;28;20028;-53
2023/09/10 05:42:52;;;;;;;7.35;4.85;;;;;;;17.05;100.00;100920.31;5061162;28;20067;-51
2023/09/10 05:45:18;;;;;;;6.55;4.93;;;;;;;17.06;100.00;100928.13;5050490;28;20436;-50
2023/09/10 05:47:44;;;;;;;5.95;3.58;;;;;;;17.10;100.00;100934.69;5059671;28;20029;-56
2023/09/10 05:50:09;;;;;;;8.13;4.82;;;;;;;17.14;100.00;100935.88;5071381;28;20029;-51
2023/09/10 05:52:35;;;;;;;17.13;4.93;;;;;;;17.13;100.00;100942.25;5060483;28;20488;-53
2023/09/10 05:55:00;;;;;;;7.60;3.85;;;;;;;17.17;100.00;100934.63;5057484;28;20021;-54
2023/09/10 05:57:26;;;;;;;11.45;6.13;;;;;;;17.14;100.00;100937.72;5055415;28;20020;-54
2023/09/10 05:59:51;;;;;;;10.73;5.30;;;;;;;17.15;100.00;100948.22;5065778;28;20397;-53
2023/09/10 06:02:16;;;;;;;7.80;6.07;;;;;;;17.22;100.00;100956.19;5060033;28;20180;-53
2023/09/10 06:04:41;;;;;;;8.52;5.30;;;;;;;17.22;100.00;100954.34;5066070;28;20036;-53
2023/09/10 06:07:07;;;;;;;6.03;5.07;;;;;;;17.22;100.00;100954.34;5053993;28;20158;-52
2023/09/10 06:09:33;;;;;;;5.82;5.05;;;;;;;17.26;100.00;100959.25;5056962;28;20482;-52
2023/09/10 06:12:00;;;;;;;8.27;5.05;;;;;;;17.25;100.00;100962.97;5057496;28;20033;-54
2023/09/10 06:14:26;;;;;;;5.80;4.78;;;;;;;17.28;100.00;100957.16;5071864;28;20123;-54
2023/09/10 06:16:51;;;;;;;6.72;4.50;;;;;;;17.34;100.00;100956.25;5051295;28;20032;-51
2023/09/10 06:19:16;;;;;;;5.22;4.70;;;;;;;17.40;100.00;100964.22;5060453;28;20057;-54
2023/09/10 06:21:42;;;;;;;6.30;4.68;;;;;;;17.45;100.00;100958.19;5049940;28;20031;-56
2023/09/10 06:24:07;;;;;;;10.38;5.40;;;;;;;17.40;100.00;100955.38;5062765;28;20131;-54
2023/09/10 06:26:33;;;;;;;6.82;5.05;;;;;;;17.44;100.00;100964.59;5055781;28;20033;-54
2023/09/10 06:29:00;;;;;;;6.97;5.28;;;;;;;17.47;100.00;100963.31;5051945;28;20032;-55
2023/09/10 06:31:26;;;;;;;6.13;5.28;;;;;;;17.55;100.00;100958.47;5053655;28;20044;-51
2023/09/10 06:33:54;;;;;;;9.15;4.80;;;;;;;17.64;100.00;100967.84;5059979;28;20039;-49
2023/09/10 06:36:19;;;;;;;8.93;4.85;;;;;;;17.73;100.00;100952.25;5058157;28;20024;-55
2023/09/10 06:38:47;;;;;;;6.53;5.07;;;;;;;17.84;100.00;100956.09;5055507;28;20035;-55
2023/09/10 06:41:16;;;;;;;6.38;4.95;;;;;;;17.84;100.00;100956.91;5060207;28;20040;-53
2023/09/10 06:43:42;;;;;;;8.32;5.07;;;;;;;17.90;100.00;100954.34;5051766;28;20040;-50
2023/09/10 06:46:08;;;;;;;8.27;4.50;;;;;;;17.96;100.00;100959.59;5054786;28;20028;-53
2023/09/10 06:48:33;;;;;;;11.43;5.65;;;;;;;18.01;100.00;100951.69;5047331;28;20545;-51
2023/09/10 06:51:00;;;;;;;7.20;5.43;;;;;;;18.09;100.00;100954.03;5049855;28;20025;-53
2023/09/10 06:53:30;;;;;;;7.85;5.35;;;;;;;18.17;100.00;100950.22;5064567;28;20162;-51
2023/09/10 06:55:56;;;;;;;7.63;6.00;;;;;;;18.27;100.00;100955.03;5054163;28;20036;-51
2023/09/10 06:58:22;;;;;;;9.15;5.85;;;;;;;18.46;100.00;100953.91;5062350;28;20254;-54
2023/09/10 07:00:47;;;;;;;6.05;5.47;;;;;;;18.66;100.00;100947.38;5057381;28;20103;-55
2023/09/10 07:03:13;;;;;;;12.70;6.97;;;;;;;18.83;100.00;100942.97;5058863;28;20040;-54
2023/09/10 07:05:40;;;;;;;6.47;5.50;;;;;;;18.95;100.00;100945.66;5048643;28;20119;-50
2023/09/10 07:08:06;;;;;;;5.53;5.03;;;;;;;19.04;100.00;100944.22;5047716;28;20037;-51
2023/09/10 07:10:33;;;;;;;12.75;7.20;;;;;;;19.17;100.00;100943.16;5044752;28;20029;-54
2023/09/10 07:12:58;;;;;;;9.25;7.05;;;;;;;19.27;100.00;100943.38;5046925;28;20036;-55
2023/09/10 07:15:23;;;;;;;6.82;5.65;;;;;;;19.38;100.00;100945.19;5055379;28;20036;-52
2023/09/10 07:17:49;;;;;;;6.85;6.15;;;;;;;19.52;100.00;100944.94;5056440;28;20036;-50
2023/09/10 07:20:14;;;;;;;8.90;6.78;;;;;;;19.61;100.00;100932.72;5052869;28;20029;-53
2023/09/10 07:22:39;;;;;;;12.35;7.15;;;;;;;19.78;100.00;100936.31;5052084;28;20593;-55
2023/09/10 07:25:05;;;;;;;8.55;6.88;;;;;;;19.98;100.00;100925.13;5059654;28;20540;-54
2023/09/10 07:27:30;;;;;;;6.47;5.43;;;;;;;20.11;100.00;100925.84;5047059;28;20035;-53
2023/09/10 07:29:56;;;;;;;10.68;6.72;;;;;;;20.26;100.00;100918.88;5059206;28;20028;-54
2023/09/10 07:32:21;;;;;;;11.15;6.47;;;;;;;20.42;100.00;100917.22;5056681;28;20477;-56
2023/09/10 07:34:47;;;;;;;6.10;5.40;;;;;;;20.49;100.00;100906.25;5046640;28;20994;-55
2023/09/10 07:37:12;;;;;;;8.85;6.57;;;;;;;20.61;100.00;100914.28;5053123;28;20462;-53
2023/09/10 07:39:37;;;;;;;10.98;6.75;;;;;;;20.74;100.00;100902.34;5060420;28;20041;-55
2023/09/10 07:42:03;;;;;;;10.00;6.65;;;;;;;20.94;100.00;100907.22;5069152;28;20021;-51
2023/09/10 07:44:28;;;;;;;11.13;6.85;;;;;;;21.17;100.00;100904.28;5056173;28;20359;-53
2023/09/10 07:46:54;;;;;;;9.70;6.25;;;;;;;21.45;100.00;100905.13;5051088;28;20151;-52
2023/09/10 07:49:19;;;;;;;8.43;6.63;;;;;;;21.52;100.00;100895.78;5047437;28;20159;-54
2023/09/10 07:51:44;;;;;;;7.93;6.30;;;;;;;21.75;100.00;100891.97;5051432;28;20427;-53
2023/09/10 07:54:10;;;;;;;9.20;6.75;;;;;;;22.02;100.00;100893.00;5058923;28;20037;-49
2023/09/10 07:56:35;;;;;;;6.38;5.60;;;;;;;22.16;100.00;100892.31;5052185;28;20389;-49
2023/09/10 07:59:00;;;;;;;9.07;6.47;;;;;;;22.37;100.00;100895.22;5054844;28;20375;-48
2023/09/10 08:01:26;;;;;;;9.45;6.75;;;;;;;22.51;100.00;100882.91;5055132;28;20395;-52
2023/09/10 08:03:51;;;;;;;9.73;6.22;;;;;;;22.64;100.00;100878.91;5054464;28;20116;-50
2023/09/10 08:06:16;;;;;;;6.70;6.03;;;;;;;22.78;100.00;100874.66;5053189;28;20426;-51
2023/09/10 08:08:42;;;;;;;12.32;6.35;;;;;;;22.97;100.00;100866.09;5052746;28;20050;-53
2023/09/10 08:11:07;;;;;;;10.73;6.43;;;;;;;23.15;100.00;100873.75;5053736;28;20036;-53
2023/09/10 08:13:32;;;;;;;8.55;6.57;;;;;;;23.23;100.00;100862.44;5042646;28;20024;-52
2023/09/10 08:15:58;;;;;;;10.57;6.18;;;;;;;23.35;100.00;100859.47;5047712;28;20029;-53
2023/09/10 08:18:23;;;;;;;9.18;7.65;;;;;;;23.44;100.00;100846.22;5044612;28;20025;-50
2023/09/10 08:20:49;;;;;;;11.40;7.88;;;;;;;23.50;100.00;100834.34;5048919;28;20115;-52
2023/09/10 08:23:14;;;;;;;11.38;8.50;;;;;;;23.64;100.00;100840.84;5062605;28;20569;-50
2023/09/10 08:25:40;;;;;;;13.77;9.20;;;;;;;23.93;100.00;100843.88;5046796;28;20483;-53
2023/09/10 08:28:05;;;;;;;11.35;10.15;;;;;;;24.25;100.00;100834.63;5050747;28;20028;-53
2023/09/10 08:30:31;;;;;;;15.18;11.32;;;;;;;24.43;100.00;100841.38;5058910;28;20028;-54
2023/09/10 08:32:56;;;;;;;16.67;13.38;;;;;;;24.71;100.00;100839.16;5052662;28;20114;-53
2023/09/10 08:35:23;;;;;;;15.50;10.60;;;;;;;25.01;100.00;100839.03;5048243;28;20037;-52
2023/09/10 08:37:48;;;;;;;13.07;11.35;;;;;;;25.33;100.00;100842.41;5050616;28;20051;-50
2023/09/10 08:40:15;;;;;;;11.63;8.60;;;;;;;25.52;100.00;100839.84;5043804;28;20569;-52
2023/09/10 08:43:08;;;;;;;16.90;10.15;;;;;;;25.73;100.00;100843.19;5055032;28;20454;-50
2023/09/10 08:45:34;;;;;;;8.63;7.72;;;;;;;25.85;100.00;100838.25;5050826;28;20045;-50
2023/09/10 08:48:01;;;;;;;13.68;8.93;;;;;;;25.87;100.00;100819.78;5048593;28;20044;-52
2023/09/10 08:50:27;;;;;;;9.40;8.40;;;;;;;26.00;100.00;100810.94;5048882;28;20051;-52
2023/09/10 08:52:54;;;;;;;12.10;7.70;;;;;;;26.22;100.00;100799.56;5054101;28;20039;-49
2023/09/10 08:55:21;;;;;;;7.55;5.45;;;;;;;26.43;100.00;100783.03;5053861;28;20045;-56
2023/09/10 08:57:47;;;;;;;5.25;4.32;;;;;;;26.65;100.00;100788.78;5056709;28;20029;-54
2023/09/10 09:00:14;;;;;;;3.65;3.25;;;;;;;26.82;100.00;100780.13;5049349;28;20029;-51
2023/09/10 09:02:40;;;;;;;7.13;3.20;;;;;;;27.12;100.00;100776.16;5055795;28;20029;-53
2023/09/10 09:05:06;;;;;;;4.30;2.60;;;;;;;27.28;100.00;100768.59;5041396;28;20532;-53
2023/09/10 09:07:49;;;;;;;7.88;2.70;;;;;;;27.58;100.00;100759.16;5054328;28;20212;-51
2023/09/10 09:10:26;;;;;;;3.55;2.67;;;;;;;27.99;100.00;100746.75;5049196;28;20047;-54
2023/09/10 09:12:56;;;;;;;4.22;3.83;;;;;;;28.32;100.00;100747.47;5051916;28;20418;-53
2023/09/10 09:15:21;;;;;;;4.35;2.40;;;;;;;28.51;100.00;100741.91;5049417;28;20111;-53
2023/09/10 09:17:48;;;;;;;2.22;2.08;;;;;;;28.78;100.00;100735.56;5053583;28;20538;-53
2023/09/10 09:20:16;;;;;;;3.50;2.38;;;;;;;28.82;100.00;100735.78;5044320;28;20075;-53
2023/09/10 09:22:45;;;;;;;4.30;2.17;;;;;;;28.90;100.00;100726.88;5048188;28;20057;-53
2023/09/10 09:25:10;;;;;;;4.18;2.47;;;;;;;29.05;100.00;100726.53;5050850;28;20040;-53
2023/09/10 09:27:37;;;;;;;4.72;2.30;;;;;;;29.13;100.00;100722.25;5050566;28;20389;-51
2023/09/10 09:30:06;;;;;;;6.68;2.40;;;;;;;28.93;100.00;100716.13;5044909;28;20025;-57
2023/09/10 09:32:35;;;;;;;4.93;3.22;;;;;;;28.81;100.00;100720.50;5060636;28;20075;-55
2023/09/10 09:35:00;;;;;;;19.63;3.60;;;;;;;28.87;100.00;100722.84;5048130;28;20044;-56
2023/09/10 09:37:25;;;;;;;3.22;2.10;;;;;;;28.86;100.00;100721.22;5052603;28;20032;-55
2023/09/10 09:39:51;;;;;;;2.85;2.10;;;;;;;28.79;100.00;100715.38;5045398;28;20039;-52
2023/09/10 09:42:16;;;;;;;4.57;1.90;;;;;;;28.77;100.00;100716.81;5052056;28;20033;-52
2023/09/10 09:44:44;;;;;;;2.45;1.75;;;;;;;28.88;100.00;100715.44;5050588;28;20043;-54
2023/09/10 09:47:13;;;;;;;3.05;1.67;;;;;;;28.88;100.00;100713.53;5055065;28;20142;-53
2023/09/10 09:49:46;;;;;;;6.50;2.03;;;;;;;28.81;100.00;100715.88;5045908;28;20037;-52
2023/09/10 09:52:12;;;;;;;11.18;1.80;;;;;;;28.84;100.00;100714.47;5053877;28;20032;-56
2023/09/10 09:54:39;;;;;;;5.85;3.08;;;;;;;28.92;100.00;100709.06;5052198;28;20389;-55
2023/09/10 09:57:05;;;;;;;4.97;2.35;;;;;;;28.89;100.00;100711.63;5057447;28;20021;-51
2023/09/10 09:59:34;;;;;;;3.92;2.22;;;;;;;28.80;100.00;100710.72;5047855;28;20115;-52
2023/09/10 10:02:00;;;;;;;5.75;2.00;;;;;;;28.88;100.00;100708.06;5048128;28;21208;-53
2023/09/10 10:04:25;;;;;;;3.35;2.47;;;;;;;29.01;100.00;100713.78;5049091;28;20029;-55
2023/09/10 10:06:51;;;;;;;3.78;2.60;;;;;;;29.00;100.00;100704.00;5058083;28;20391;-54
2023/09/10 10:09:19;;;;;;;4.15;2.25;;;;;;;29.11;100.00;100698.00;5048182;28;20033;-53
2023/09/10 10:11:44;;;;;;;6.57;2.58;;;;;;;29.26;100.00;100702.28;5056991;28;20088;-53
2023/09/10 10:14:11;;;;;;;4.22;1.63;;;;;;;29.39;100.00;100699.78;5050463;28;20037;-55
2023/09/10 10:16:37;;;;;;;3.90;1.98;;;;;;;29.51;100.00;100700.03;5053689;28;20108;-53
2023/09/10 10:19:03;;;;;;;6.68;3.08;;;;;;;29.42;100.00;100699.16;5052647;28;20616;-53
2023/09/10 10:21:29;;;;;;;2.88;1.98;;;;;;;29.38;100.00;100706.34;5043596;28;20074;-54
2023/09/10 10:23:56;;;;;;;3.33;2.47;;;;;;;29.22;100.00;100701.28;5050284;28;20033;-52
2023/09/10 10:26:23;;;;;;;3.78;2.25;;;;;;;29.19;100.00;100695.63;5049352;28;20071;-54
2023/09/10 10:28:49;;;;;;;4.05;2.17;;;;;;;29.24;100.00;100701.78;5048213;28;20059;-52
2023/09/10 10:31:22;;;;;;;3.10;2.40;;;;;;;29.16;100.00;100702.53;5049233;28;20040;-54
2023/09/10 10:34:03;;;;;;;8.63;2.38;;;;;;;29.22;100.00;100700.47;5049611;28;20151;-52
2023/09/10 10:37:06;;;;;;;;;;;;;;;29.41;100.00;100701.09;5042389;28;20036;-54
2023/09/10 10:39:39;;;;;;;4.43;2.60;;;;;;;29.08;100.00;100701.34;4993405;28;20299;-52
2023/09/10 10:42:09;;;;;;;2.88;2.50;;;;;;;29.08;100.00;100695.09;4991922;28;20116;-53
2023/09/10 10:44:35;;;;;;;2.47;1.87;;;;;;;29.11;100.00;100692.53;5023436;28;20055;-55
2023/09/10 10:47:21;;;;;;;8.88;3.92;;;;;;;29.24;100.00;100690.84;5042054;28;20278;-52
2023/09/10 10:49:52;;;;;;;4.88;2.38;;;;;;;29.21;100.00;100687.94;5040234;28;20035;-53
2023/09/10 10:52:28;;;;;;;5.32;2.08;;;;;;;29.25;100.00;100686.19;5046026;28;20031;-52
2023/09/10 10:54:54;;;;;;;6.10;2.83;;;;;;;29.27;100.00;100687.50;5046108;28;20083;-54
2023/09/10 10:57:21;;;;;;;9.48;3.08;;;;;;;29.23;100.00;100683.78;5046755;28;20037;-52
2023/09/10 10:59:48;;;;;;;3.47;2.58;;;;;;;29.30;100.00;100675.97;5040923;28;20115;-50
2023/09/10 11:02:21;;;;;;;6.15;2.67;;;;;;;29.37;100.00;100680.97;5053068;28;20687;-54
2023/09/10 11:05:13;;;;;;;8.65;3.17;;;;;;;29.46;100.00;100678.31;5045905;28;20060;-53
2023/09/10 11:07:38;;;;;;;8.60;3.60;;;;;;;29.57;100.00;100674.97;5044999;28;20039;-53
2023/09/10 11:10:28;;;;;;;11.55;4.30;;;;;;;29.69;100.00;100671.69;5043966;28;20024;-54
2023/09/10 11:13:13;;;;;;;5.63;3.15;;;;;;;29.66;100.00;100676.97;5050843;28;20032;-54
2023/09/10 11:16:03;;;;;;;7.78;2.85;;;;;;;29.65;100.00;100670.72;5037051;28;20021;-56